Airfield :
LOGIN :

Register | Disclaimer

   EN    FR    IT 

 










Legend :    VFR   Marginal VFR   IFR   Intensive IFR   Very Intensive IFR
Visi :
Ceiling :
>= 8 km
>= 3000ft
5 to 8 km
1000 to 3000 ft
1500m to 5 km
500 to 1000 ft
800 to 1500m
200 to 500 ft
< 800m
< 200 ft
Symbols :   Thunderstorms  Fog  Heavy snow  Heavy precipitations  Wind > 20 kt
SIGMETs :     Misc.  Thunderstorms  Icing  Turbulence  Mountain Waves  Volcanic Ashes






- Airport Elevation : 32 ft
- IATA code : LKZ


EGUL - RAF Lakenheath

CURRENT METAR :
  • 281056Z AUTO 03021G30KT 9999 SCT026 08/02 A3042 RMK AO2 PK WND 04030/52 SLP305 T00830021 $

EXPIRED METARs :
  • 280956Z AUTO 02017G26KT 9999 SCT026 SCT190 08/02 A3040 RMK AO2 PK WND 03027/10 SLP298 T00840022 $
  • 280856Z AUTO 03017G23KT 9999 FEW023 08/03 A3039 RMK AO2 PK WND 03027/25 SLP295 T00760025 52020 $

TAF TAF EGUL
Valid from the 27 at 15:00 until the 28 at 21:00 UTC


271500Z 2715/2821 03012G18KT 9999 FEW280 QNH3021INS
BECMG 2720/2721 03009KT 9999 SCT060 QNH3028INS
TEMPO 2803/2808 6000 BR
BECMG 2808/2809 04015G25KT 9999 BKN030 620335 QNH3035INS TX12/2715Z TN01/2806Z LAST NO AMDS AFT 2717 NEXT 3007



MET'MAP, your aeronautical weather chart ! - Copyright ORBIFLY December 2007 - Disclaimer

ORBIFLY MET'MAP TEAM :

Programming & Development : Alexandra Zaïnal
Concept & original design : Baudouin d'Aumeries
Assistance for programming : Marc-Olivier Méhu
Technical & hardware support : Manuel Goepfert

Contact : metmap@orbifly.com




SOURCES & CREDITS :

   NOAA